sensor_id;sensor_type;location;lat;lon;timestamp;P1;durP1;ratioP1;P2;durP2;ratioP2
68614;SDS011;55593;51.994;5.882;2023-04-03T00:00:25;7.45;;;2.25;;
68614;SDS011;55593;51.994;5.882;2023-04-03T00:02:54;3.72;;;2.20;;
68614;SDS011;55593;51.994;5.882;2023-04-03T00:05:23;6.10;;;2.20;;
68614;SDS011;55593;51.994;5.882;2023-04-03T00:07:55;4.65;;;2.30;;
68614;SDS011;55593;51.994;5.882;2023-04-03T00:10:36;12.27;;;3.97;;
68614;SDS011;55593;51.994;5.882;2023-04-03T00:13:06;5.55;;;2.13;;
68614;SDS011;55593;51.994;5.882;2023-04-03T00:15:38;4.45;;;2.47;;
68614;SDS011;55593;51.994;5.882;2023-04-03T00:18:08;5.47;;;2.28;;
68614;SDS011;55593;51.994;5.882;2023-04-03T00:20:38;5.43;;;2.22;;
68614;SDS011;55593;51.994;5.882;2023-04-03T00:23:08;6.32;;;2.33;;
68614;SDS011;55593;51.994;5.882;2023-04-03T00:25:40;8.18;;;2.13;;
68614;SDS011;55593;51.994;5.882;2023-04-03T00:28:09;4.22;;;2.03;;
68614;SDS011;55593;51.994;5.882;2023-04-03T00:30:38;5.25;;;2.25;;
68614;SDS011;55593;51.994;5.882;2023-04-03T00:33:08;5.50;;;2.30;;
68614;SDS011;55593;51.994;5.882;2023-04-03T00:35:38;6.20;;;2.72;;
68614;SDS011;55593;51.994;5.882;2023-04-03T00:38:07;8.07;;;2.13;;
68614;SDS011;55593;51.994;5.882;2023-04-03T00:40:41;7.07;;;2.05;;
68614;SDS011;55593;51.994;5.882;2023-04-03T00:43:13;5.20;;;2.00;;
68614;SDS011;55593;51.994;5.882;2023-04-03T00:45:44;3.25;;;1.98;;
68614;SDS011;55593;51.994;5.882;2023-04-03T00:48:15;4.88;;;1.90;;
68614;SDS011;55593;51.994;5.882;2023-04-03T00:50:47;5.65;;;1.98;;
68614;SDS011;55593;51.994;5.882;2023-04-03T00:53:18;5.43;;;1.92;;
68614;SDS011;55593;51.994;5.882;2023-04-03T00:55:53;8.48;;;2.25;;
68614;SDS011;55593;51.994;5.882;2023-04-03T00:58:25;7.60;;;2.38;;
68614;SDS011;55593;51.994;5.882;2023-04-03T01:00:57;7.50;;;2.20;;
68614;SDS011;55593;51.994;5.882;2023-04-03T01:03:29;5.03;;;2.00;;
68614;SDS011;55593;51.994;5.882;2023-04-03T01:06:01;6.75;;;2.33;;
68614;SDS011;55593;51.994;5.882;2023-04-03T01:08:30;4.72;;;1.77;;
68614;SDS011;55593;51.994;5.882;2023-04-03T01:11:02;5.38;;;2.70;;
68614;SDS011;55593;51.994;5.882;2023-04-03T01:13:32;5.32;;;2.17;;
68614;SDS011;55593;51.994;5.882;2023-04-03T01:16:04;3.67;;;1.98;;
68614;SDS011;55593;51.994;5.882;2023-04-03T01:18:34;4.85;;;2.15;;
68614;SDS011;55593;51.994;5.882;2023-04-03T01:24:04;5.20;;;2.22;;
68614;SDS011;55593;51.994;5.882;2023-04-03T01:26:57;6.90;;;2.00;;
68614;SDS011;55593;51.994;5.882;2023-04-03T01:29:26;4.82;;;2.05;;
68614;SDS011;55593;51.994;5.882;2023-04-03T01:31:58;5.78;;;2.25;;
68614;SDS011;55593;51.994;5.882;2023-04-03T01:34:29;6.32;;;2.10;;
68614;SDS011;55593;51.994;5.882;2023-04-03T01:37:00;6.43;;;2.40;;
68614;SDS011;55593;51.994;5.882;2023-04-03T01:39:29;5.82;;;1.95;;
68614;SDS011;55593;51.994;5.882;2023-04-03T01:41:59;6.57;;;3.35;;
68614;SDS011;55593;51.994;5.882;2023-04-03T01:44:34;7.47;;;2.35;;
68614;SDS011;55593;51.994;5.882;2023-04-03T01:47:07;8.32;;;2.20;;
68614;SDS011;55593;51.994;5.882;2023-04-03T01:49:39;3.45;;;1.20;;
68614;SDS011;55593;51.994;5.882;2023-04-03T01:52:08;7.13;;;2.10;;
68614;SDS011;55593;51.994;5.882;2023-04-03T01:54:37;11.25;;;3.03;;
68614;SDS011;55593;51.994;5.882;2023-04-03T01:57:08;7.22;;;2.13;;
68614;SDS011;55593;51.994;5.882;2023-04-03T01:59:39;5.40;;;2.20;;
68614;SDS011;55593;51.994;5.882;2023-04-03T02:02:11;6.47;;;2.05;;
68614;SDS011;55593;51.994;5.882;2023-04-03T02:04:41;4.15;;;1.65;;
68614;SDS011;55593;51.994;5.882;2023-04-03T02:07:12;6.40;;;2.08;;
68614;SDS011;55593;51.994;5.882;2023-04-03T02:09:41;6.15;;;2.08;;
68614;SDS011;55593;51.994;5.882;2023-04-03T02:12:10;8.25;;;2.42;;
68614;SDS011;55593;51.994;5.882;2023-04-03T02:14:40;7.57;;;2.10;;
68614;SDS011;55593;51.994;5.882;2023-04-03T02:17:14;18.27;;;4.43;;
68614;SDS011;55593;51.994;5.882;2023-04-03T02:19:43;8.00;;;2.17;;
68614;SDS011;55593;51.994;5.882;2023-04-03T02:22:13;7.85;;;2.10;;
68614;SDS011;55593;51.994;5.882;2023-04-03T02:24:42;6.97;;;2.42;;
68614;SDS011;55593;51.994;5.882;2023-04-03T02:27:11;7.70;;;2.35;;
68614;SDS011;55593;51.994;5.882;2023-04-03T02:29:41;6.93;;;2.03;;
68614;SDS011;55593;51.994;5.882;2023-04-03T02:32:10;5.63;;;1.73;;
68614;SDS011;55593;51.994;5.882;2023-04-03T02:34:43;10.70;;;2.55;;
68614;SDS011;55593;51.994;5.882;2023-04-03T02:37:13;8.68;;;2.47;;
68614;SDS011;55593;51.994;5.882;2023-04-03T02:39:45;7.43;;;2.28;;
68614;SDS011;55593;51.994;5.882;2023-04-03T02:42:14;8.48;;;2.05;;
68614;SDS011;55593;51.994;5.882;2023-04-03T02:44:44;7.68;;;2.20;;
68614;SDS011;55593;51.994;5.882;2023-04-03T02:47:13;6.80;;;2.28;;
68614;SDS011;55593;51.994;5.882;2023-04-03T02:49:45;7.47;;;2.33;;
68614;SDS011;55593;51.994;5.882;2023-04-03T02:52:14;8.20;;;1.85;;
68614;SDS011;55593;51.994;5.882;2023-04-03T02:54:44;8.25;;;2.33;;
68614;SDS011;55593;51.994;5.882;2023-04-03T02:57:14;7.72;;;2.30;;
68614;SDS011;55593;51.994;5.882;2023-04-03T02:59:43;5.78;;;1.90;;
68614;SDS011;55593;51.994;5.882;2023-04-03T03:02:12;5.50;;;2.08;;
68614;SDS011;55593;51.994;5.882;2023-04-03T03:04:44;5.45;;;2.22;;
68614;SDS011;55593;51.994;5.882;2023-04-03T03:07:14;6.00;;;1.95;;
68614;SDS011;55593;51.994;5.882;2023-04-03T03:09:43;7.32;;;2.28;;
68614;SDS011;55593;51.994;5.882;2023-04-03T03:12:12;7.88;;;2.40;;
68614;SDS011;55593;51.994;5.882;2023-04-03T03:14:42;10.05;;;2.60;;
68614;SDS011;55593;51.994;5.882;2023-04-03T03:17:11;5.22;;;1.88;;
68614;SDS011;55593;51.994;5.882;2023-04-03T03:19:41;9.80;;;2.08;;
68614;SDS011;55593;51.994;5.882;2023-04-03T03:22:14;5.35;;;2.47;;
68614;SDS011;55593;51.994;5.882;2023-04-03T03:24:43;6.35;;;2.25;;
68614;SDS011;55593;51.994;5.882;2023-04-03T03:27:12;7.40;;;1.92;;
68614;SDS011;55593;51.994;5.882;2023-04-03T03:29:43;4.35;;;1.88;;
68614;SDS011;55593;51.994;5.882;2023-04-03T03:32:13;5.88;;;2.45;;
68614;SDS011;55593;51.994;5.882;2023-04-03T03:34:44;6.20;;;1.98;;
68614;SDS011;55593;51.994;5.882;2023-04-03T03:37:16;7.43;;;2.30;;
68614;SDS011;55593;51.994;5.882;2023-04-03T03:39:46;7.97;;;2.20;;
68614;SDS011;55593;51.994;5.882;2023-04-03T03:42:16;8.70;;;2.17;;
68614;SDS011;55593;51.994;5.882;2023-04-03T03:44:45;7.72;;;2.35;;
68614;SDS011;55593;51.994;5.882;2023-04-03T03:47:15;6.47;;;2.30;;
68614;SDS011;55593;51.994;5.882;2023-04-03T03:49:44;10.82;;;2.95;;
68614;SDS011;55593;51.994;5.882;2023-04-03T03:52:17;7.80;;;2.50;;
68614;SDS011;55593;51.994;5.882;2023-04-03T03:54:47;5.90;;;2.38;;
68614;SDS011;55593;51.994;5.882;2023-04-03T03:57:16;8.02;;;2.17;;
68614;SDS011;55593;51.994;5.882;2023-04-03T03:59:46;11.30;;;2.85;;
68614;SDS011;55593;51.994;5.882;2023-04-03T04:02:18;7.47;;;2.35;;
68614;SDS011;55593;51.994;5.882;2023-04-03T04:04:48;7.13;;;2.10;;
68614;SDS011;55593;51.994;5.882;2023-04-03T04:07:21;7.93;;;2.97;;
68614;SDS011;55593;51.994;5.882;2023-04-03T04:09:54;5.47;;;3.00;;
68614;SDS011;55593;51.994;5.882;2023-04-03T04:12:24;6.43;;;2.72;;
68614;SDS011;55593;51.994;5.882;2023-04-03T04:14:53;9.52;;;2.25;;
68614;SDS011;55593;51.994;5.882;2023-04-03T04:17:23;5.43;;;2.10;;
68614;SDS011;55593;51.994;5.882;2023-04-03T04:19:56;6.07;;;2.13;;
68614;SDS011;55593;51.994;5.882;2023-04-03T04:22:28;5.97;;;2.30;;
68614;SDS011;55593;51.994;5.882;2023-04-03T04:24:58;7.90;;;2.17;;
68614;SDS011;55593;51.994;5.882;2023-04-03T04:27:28;9.38;;;2.47;;
68614;SDS011;55593;51.994;5.882;2023-04-03T04:29:57;6.90;;;2.60;;
68614;SDS011;55593;51.994;5.882;2023-04-03T04:32:27;6.45;;;2.35;;
68614;SDS011;55593;51.994;5.882;2023-04-03T04:34:56;6.15;;;2.60;;
68614;SDS011;55593;51.994;5.882;2023-04-03T04:37:30;5.07;;;2.10;;
68614;SDS011;55593;51.994;5.882;2023-04-03T04:40:01;6.85;;;2.20;;
68614;SDS011;55593;51.994;5.882;2023-04-03T04:42:30;7.70;;;2.78;;
68614;SDS011;55593;51.994;5.882;2023-04-03T04:45:00;7.18;;;2.40;;
68614;SDS011;55593;51.994;5.882;2023-04-03T04:47:29;10.10;;;3.13;;
68614;SDS011;55593;51.994;5.882;2023-04-03T04:49:59;7.35;;;3.83;;
68614;SDS011;55593;51.994;5.882;2023-04-03T04:52:35;7.28;;;2.38;;
68614;SDS011;55593;51.994;5.882;2023-04-03T04:55:06;7.07;;;2.33;;
68614;SDS011;55593;51.994;5.882;2023-04-03T04:57:36;8.57;;;2.70;;
68614;SDS011;55593;51.994;5.882;2023-04-03T05:00:06;8.82;;;2.42;;
68614;SDS011;55593;51.994;5.882;2023-04-03T05:02:37;7.75;;;2.30;;
68614;SDS011;55593;51.994;5.882;2023-04-03T05:05:06;6.40;;;2.20;;
68614;SDS011;55593;51.994;5.882;2023-04-03T05:07:40;8.85;;;2.47;;
68614;SDS011;55593;51.994;5.882;2023-04-03T05:10:09;4.80;;;2.05;;
68614;SDS011;55593;51.994;5.882;2023-04-03T05:12:39;5.70;;;2.25;;
68614;SDS011;55593;51.994;5.882;2023-04-03T05:15:09;9.68;;;2.92;;
68614;SDS011;55593;51.994;5.882;2023-04-03T05:17:39;7.18;;;2.30;;
68614;SDS011;55593;51.994;5.882;2023-04-03T05:20:12;7.10;;;2.35;;
68614;SDS011;55593;51.994;5.882;2023-04-03T05:22:46;6.72;;;2.40;;
68614;SDS011;55593;51.994;5.882;2023-04-03T05:25:16;13.48;;;3.20;;
68614;SDS011;55593;51.994;5.882;2023-04-03T05:27:45;11.00;;;4.35;;
68614;SDS011;55593;51.994;5.882;2023-04-03T05:30:14;6.93;;;2.47;;
68614;SDS011;55593;51.994;5.882;2023-04-03T05:32:45;6.03;;;2.00;;
68614;SDS011;55593;51.994;5.882;2023-04-03T05:35:23;7.45;;;2.08;;
68614;SDS011;55593;51.994;5.882;2023-04-03T05:37:59;6.43;;;2.80;;
68614;SDS011;55593;51.994;5.882;2023-04-03T05:40:28;6.28;;;2.40;;
68614;SDS011;55593;51.994;5.882;2023-04-03T05:42:58;8.85;;;2.42;;
68614;SDS011;55593;51.994;5.882;2023-04-03T05:45:31;10.63;;;2.40;;
68614;SDS011;55593;51.994;5.882;2023-04-03T05:48:02;6.32;;;2.30;;
68614;SDS011;55593;51.994;5.882;2023-04-03T05:50:31;9.93;;;2.22;;
68614;SDS011;55593;51.994;5.882;2023-04-03T05:53:04;5.88;;;2.25;;
68614;SDS011;55593;51.994;5.882;2023-04-03T05:55:33;5.47;;;2.20;;
68614;SDS011;55593;51.994;5.882;2023-04-03T05:58:02;8.90;;;2.55;;
68614;SDS011;55593;51.994;5.882;2023-04-03T06:00:32;8.82;;;2.50;;
68614;SDS011;55593;51.994;5.882;2023-04-03T06:03:02;6.40;;;1.98;;
68614;SDS011;55593;51.994;5.882;2023-04-03T06:05:32;5.53;;;2.28;;
68614;SDS011;55593;51.994;5.882;2023-04-03T06:08:04;6.70;;;2.17;;
68614;SDS011;55593;51.994;5.882;2023-04-03T06:10:35;7.03;;;2.50;;
68614;SDS011;55593;51.994;5.882;2023-04-03T06:13:05;8.93;;;2.55;;
68614;SDS011;55593;51.994;5.882;2023-04-03T06:15:35;9.55;;;2.67;;
68614;SDS011;55593;51.994;5.882;2023-04-03T06:18:08;9.85;;;2.80;;
68614;SDS011;55593;51.994;5.882;2023-04-03T06:20:38;10.70;;;2.45;;
68614;SDS011;55593;51.994;5.882;2023-04-03T06:23:10;9.38;;;2.80;;
68614;SDS011;55593;51.994;5.882;2023-04-03T06:25:39;8.52;;;2.40;;
68614;SDS011;55593;51.994;5.882;2023-04-03T06:28:08;7.53;;;2.33;;
68614;SDS011;55593;51.994;5.882;2023-04-03T06:30:38;9.98;;;2.33;;
68614;SDS011;55593;51.994;5.882;2023-04-03T06:33:07;7.32;;;2.25;;
68614;SDS011;55593;51.994;5.882;2023-04-03T06:35:36;7.03;;;2.40;;
68614;SDS011;55593;51.994;5.882;2023-04-03T06:38:06;8.50;;;2.42;;
68614;SDS011;55593;51.994;5.882;2023-04-03T06:40:39;7.53;;;2.30;;
68614;SDS011;55593;51.994;5.882;2023-04-03T06:43:09;9.10;;;2.30;;
68614;SDS011;55593;51.994;5.882;2023-04-03T06:45:38;9.88;;;2.58;;
68614;SDS011;55593;51.994;5.882;2023-04-03T06:48:07;8.48;;;2.65;;
68614;SDS011;55593;51.994;5.882;2023-04-03T06:50:37;6.63;;;2.10;;
68614;SDS011;55593;51.994;5.882;2023-04-03T06:53:06;9.75;;;2.47;;
68614;SDS011;55593;51.994;5.882;2023-04-03T06:55:35;8.20;;;2.30;;
68614;SDS011;55593;51.994;5.882;2023-04-03T06:58:07;10.52;;;2.88;;
68614;SDS011;55593;51.994;5.882;2023-04-03T07:00:36;7.40;;;2.25;;
68614;SDS011;55593;51.994;5.882;2023-04-03T07:03:06;9.52;;;2.20;;
68614;SDS011;55593;51.994;5.882;2023-04-03T07:05:35;8.70;;;2.25;;
68614;SDS011;55593;51.994;5.882;2023-04-03T07:08:04;6.32;;;2.00;;
68614;SDS011;55593;51.994;5.882;2023-04-03T07:10:33;7.50;;;2.30;;
68614;SDS011;55593;51.994;5.882;2023-04-03T07:13:05;10.57;;;2.30;;
68614;SDS011;55593;51.994;5.882;2023-04-03T07:15:34;10.73;;;2.42;;
68614;SDS011;55593;51.994;5.882;2023-04-03T07:18:03;6.65;;;2.42;;
68614;SDS011;55593;51.994;5.882;2023-04-03T07:20:33;8.10;;;2.00;;
68614;SDS011;55593;51.994;5.882;2023-04-03T07:23:02;6.47;;;2.00;;
68614;SDS011;55593;51.994;5.882;2023-04-03T07:25:31;10.05;;;2.15;;
68614;SDS011;55593;51.994;5.882;2023-04-03T07:28:00;6.40;;;1.90;;
68614;SDS011;55593;51.994;5.882;2023-04-03T07:30:33;6.00;;;2.13;;
68614;SDS011;55593;51.994;5.882;2023-04-03T07:33:02;4.82;;;1.63;;
68614;SDS011;55593;51.994;5.882;2023-04-03T07:35:32;6.50;;;2.08;;
68614;SDS011;55593;51.994;5.882;2023-04-03T07:38:01;6.53;;;2.00;;
68614;SDS011;55593;51.994;5.882;2023-04-03T07:40:31;8.52;;;2.20;;
68614;SDS011;55593;51.994;5.882;2023-04-03T07:43:00;5.68;;;1.90;;
68614;SDS011;55593;51.994;5.882;2023-04-03T07:45:29;7.15;;;2.25;;
68614;SDS011;55593;51.994;5.882;2023-04-03T07:48:02;5.20;;;1.70;;
68614;SDS011;55593;51.994;5.882;2023-04-03T07:50:32;7.35;;;2.45;;
68614;SDS011;55593;51.994;5.882;2023-04-03T07:53:02;6.18;;;2.17;;
68614;SDS011;55593;51.994;5.882;2023-04-03T07:55:31;7.13;;;2.08;;
68614;SDS011;55593;51.994;5.882;2023-04-03T07:58:06;5.22;;;2.13;;
68614;SDS011;55593;51.994;5.882;2023-04-03T08:00:38;6.57;;;1.98;;
68614;SDS011;55593;51.994;5.882;2023-04-03T08:03:08;3.80;;;1.30;;
68614;SDS011;55593;51.994;5.882;2023-04-03T08:05:40;7.65;;;2.15;;
68614;SDS011;55593;51.994;5.882;2023-04-03T08:08:10;7.50;;;1.90;;
68614;SDS011;55593;51.994;5.882;2023-04-03T08:10:40;8.13;;;1.85;;
68614;SDS011;55593;51.994;5.882;2023-04-03T08:13:09;11.00;;;2.08;;
68614;SDS011;55593;51.994;5.882;2023-04-03T08:15:41;4.22;;;1.67;;
68614;SDS011;55593;51.994;5.882;2023-04-03T08:18:10;5.68;;;2.28;;
68614;SDS011;55593;51.994;5.882;2023-04-03T08:20:39;4.20;;;1.38;;
68614;SDS011;55593;51.994;5.882;2023-04-03T08:23:08;4.47;;;1.80;;
68614;SDS011;55593;51.994;5.882;2023-04-03T08:25:38;6.22;;;1.77;;
68614;SDS011;55593;51.994;5.882;2023-04-03T08:28:07;5.20;;;1.52;;
68614;SDS011;55593;51.994;5.882;2023-04-03T08:30:38;4.45;;;1.65;;
68614;SDS011;55593;51.994;5.882;2023-04-03T08:33:11;4.72;;;1.35;;
68614;SDS011;55593;51.994;5.882;2023-04-03T08:35:41;4.97;;;1.60;;
68614;SDS011;55593;51.994;5.882;2023-04-03T08:38:11;4.85;;;1.40;;
68614;SDS011;55593;51.994;5.882;2023-04-03T08:40:40;4.40;;;2.50;;
68614;SDS011;55593;51.994;5.882;2023-04-03T08:43:16;4.38;;;1.50;;
68614;SDS011;55593;51.994;5.882;2023-04-03T08:45:57;5.50;;;1.60;;
68614;SDS011;55593;51.994;5.882;2023-04-03T08:48:29;5.68;;;1.35;;
68614;SDS011;55593;51.994;5.882;2023-04-03T08:51:03;2.67;;;1.17;;
68614;SDS011;55593;51.994;5.882;2023-04-03T08:53:38;4.00;;;1.40;;
68614;SDS011;55593;51.994;5.882;2023-04-03T08:56:09;4.80;;;1.38;;
68614;SDS011;55593;51.994;5.882;2023-04-03T08:58:41;2.83;;;1.20;;
68614;SDS011;55593;51.994;5.882;2023-04-03T09:01:17;4.20;;;1.35;;
68614;SDS011;55593;51.994;5.882;2023-04-03T09:03:48;4.80;;;1.20;;
68614;SDS011;55593;51.994;5.882;2023-04-03T09:06:18;4.97;;;1.33;;
68614;SDS011;55593;51.994;5.882;2023-04-03T09:08:50;4.47;;;1.05;;
68614;SDS011;55593;51.994;5.882;2023-04-03T09:11:24;9.45;;;0.90;;
68614;SDS011;55593;51.994;5.882;2023-04-03T09:13:57;2.17;;;0.98;;
68614;SDS011;55593;51.994;5.882;2023-04-03T09:16:36;4.60;;;1.50;;
68614;SDS011;55593;51.994;5.882;2023-04-03T09:19:18;3.45;;;1.15;;
68614;SDS011;55593;51.994;5.882;2023-04-03T09:21:50;2.13;;;1.10;;
68614;SDS011;55593;51.994;5.882;2023-04-03T09:24:20;2.58;;;1.10;;
68614;SDS011;55593;51.994;5.882;2023-04-03T09:26:51;3.75;;;1.30;;
68614;SDS011;55593;51.994;5.882;2023-04-03T09:29:25;2.17;;;1.00;;
68614;SDS011;55593;51.994;5.882;2023-04-03T09:31:59;1.63;;;0.82;;
68614;SDS011;55593;51.994;5.882;2023-04-03T09:34:30;2.55;;;1.00;;
68614;SDS011;55593;51.994;5.882;2023-04-03T09:37:01;2.03;;;0.98;;
68614;SDS011;55593;51.994;5.882;2023-04-03T09:39:32;1.65;;;0.85;;
68614;SDS011;55593;51.994;5.882;2023-04-03T09:42:16;1.50;;;0.82;;
68614;SDS011;55593;51.994;5.882;2023-04-03T09:44:52;2.42;;;0.90;;
68614;SDS011;55593;51.994;5.882;2023-04-03T09:47:27;4.50;;;1.00;;
68614;SDS011;55593;51.994;5.882;2023-04-03T09:50:10;1.90;;;0.82;;
68614;SDS011;55593;51.994;5.882;2023-04-03T09:52:48;2.08;;;0.90;;
68614;SDS011;55593;51.994;5.882;2023-04-03T09:55:19;3.22;;;1.00;;
68614;SDS011;55593;51.994;5.882;2023-04-03T09:57:52;3.63;;;1.10;;
68614;SDS011;55593;51.994;5.882;2023-04-03T10:00:23;1.88;;;0.90;;
68614;SDS011;55593;51.994;5.882;2023-04-03T10:02:58;1.63;;;0.80;;
68614;SDS011;55593;51.994;5.882;2023-04-03T10:05:30;4.85;;;0.90;;
68614;SDS011;55593;51.994;5.882;2023-04-03T10:08:14;6.00;;;1.70;;
68614;SDS011;55593;51.994;5.882;2023-04-03T10:11:05;2.72;;;1.10;;
68614;SDS011;55593;51.994;5.882;2023-04-03T10:13:36;2.22;;;1.00;;
68614;SDS011;55593;51.994;5.882;2023-04-03T10:16:06;3.28;;;0.90;;
68614;SDS011;55593;51.994;5.882;2023-04-03T10:18:40;4.30;;;1.20;;
68614;SDS011;55593;51.994;5.882;2023-04-03T10:21:14;6.75;;;1.98;;
68614;SDS011;55593;51.994;5.882;2023-04-03T10:23:47;4.78;;;1.48;;
68614;SDS011;55593;51.994;5.882;2023-04-03T10:26:23;5.40;;;1.70;;
68614;SDS011;55593;51.994;5.882;2023-04-03T10:29:02;4.38;;;1.30;;
68614;SDS011;55593;51.994;5.882;2023-04-03T10:31:40;3.72;;;1.08;;
68614;SDS011;55593;51.994;5.882;2023-04-03T10:34:16;4.35;;;1.40;;
68614;SDS011;55593;51.994;5.882;2023-04-03T10:36:52;2.70;;;1.30;;
68614;SDS011;55593;51.994;5.882;2023-04-03T10:39:27;3.15;;;1.30;;
68614;SDS011;55593;51.994;5.882;2023-04-03T10:42:03;4.25;;;1.38;;
68614;SDS011;55593;51.994;5.882;2023-04-03T10:44:36;4.03;;;1.10;;
68614;SDS011;55593;51.994;5.882;2023-04-03T10:47:12;3.40;;;1.20;;
68614;SDS011;55593;51.994;5.882;2023-04-03T10:49:48;4.35;;;1.50;;
68614;SDS011;55593;51.994;5.882;2023-04-03T10:52:22;3.35;;;1.17;;
68614;SDS011;55593;51.994;5.882;2023-04-03T10:54:56;3.53;;;1.40;;
68614;SDS011;55593;51.994;5.882;2023-04-03T10:57:32;3.42;;;1.30;;
68614;SDS011;55593;51.994;5.882;2023-04-03T11:00:03;4.47;;;1.52;;
68614;SDS011;55593;51.994;5.882;2023-04-03T11:02:36;2.50;;;1.42;;
68614;SDS011;55593;51.994;5.882;2023-04-03T11:05:13;3.05;;;1.10;;
68614;SDS011;55593;51.994;5.882;2023-04-03T11:07:47;4.78;;;1.17;;
68614;SDS011;55593;51.994;5.882;2023-04-03T11:10:20;3.92;;;1.33;;
68614;SDS011;55593;51.994;5.882;2023-04-03T11:12:52;4.55;;;1.45;;
68614;SDS011;55593;51.994;5.882;2023-04-03T11:15:25;3.38;;;1.60;;
68614;SDS011;55593;51.994;5.882;2023-04-03T11:18:00;3.30;;;1.17;;
68614;SDS011;55593;51.994;5.882;2023-04-03T11:20:33;2.55;;;1.38;;
68614;SDS011;55593;51.994;5.882;2023-04-03T11:23:04;3.08;;;1.30;;
68614;SDS011;55593;51.994;5.882;2023-04-03T11:25:36;6.10;;;1.20;;
68614;SDS011;55593;51.994;5.882;2023-04-03T11:28:09;3.35;;;1.35;;
68614;SDS011;55593;51.994;5.882;2023-04-03T11:30:42;3.20;;;1.33;;
68614;SDS011;55593;51.994;5.882;2023-04-03T11:36:09;3.58;;;1.38;;
68614;SDS011;55593;51.994;5.882;2023-04-03T11:38:41;3.85;;;1.52;;
68614;SDS011;55593;51.994;5.882;2023-04-03T11:41:12;6.53;;;1.13;;
68614;SDS011;55593;51.994;5.882;2023-04-03T11:43:43;6.15;;;1.20;;
68614;SDS011;55593;51.994;5.882;2023-04-03T11:58:24;2.92;;;1.10;;
68614;SDS011;55593;51.994;5.882;2023-04-03T12:01:03;2.13;;;1.10;;
68614;SDS011;55593;51.994;5.882;2023-04-03T12:09:25;3.38;;;1.20;;
68614;SDS011;55593;51.994;5.882;2023-04-03T12:12:32;4.30;;;1.25;;
68614;SDS011;55593;51.994;5.882;2023-04-03T12:15:17;4.68;;;1.50;;
68614;SDS011;55593;51.994;5.882;2023-04-03T12:17:51;4.25;;;1.23;;
68614;SDS011;55593;51.994;5.882;2023-04-03T12:23:23;4.55;;;1.50;;
68614;SDS011;55593;51.994;5.882;2023-04-03T12:26:02;4.38;;;1.55;;
68614;SDS011;55593;51.994;5.882;2023-04-03T12:28:40;4.30;;;1.33;;
68614;SDS011;55593;51.994;5.882;2023-04-03T12:31:10;3.20;;;1.13;;
68614;SDS011;55593;51.994;5.882;2023-04-03T12:33:47;6.28;;;1.45;;
68614;SDS011;55593;51.994;5.882;2023-04-03T12:36:28;4.93;;;1.33;;
68614;SDS011;55593;51.994;5.882;2023-04-03T12:39:06;6.05;;;1.73;;
68614;SDS011;55593;51.994;5.882;2023-04-03T12:41:43;5.88;;;1.52;;
68614;SDS011;55593;51.994;5.882;2023-04-03T12:46:58;2.20;;;1.25;;
68614;SDS011;55593;51.994;5.882;2023-04-03T12:49:35;5.15;;;1.60;;
68614;SDS011;55593;51.994;5.882;2023-04-03T12:52:16;3.10;;;1.40;;
68614;SDS011;55593;51.994;5.882;2023-04-03T12:54:47;5.38;;;1.60;;
68614;SDS011;55593;51.994;5.882;2023-04-03T12:57:18;4.60;;;1.42;;
68614;SDS011;55593;51.994;5.882;2023-04-03T12:59:51;7.85;;;1.60;;
68614;SDS011;55593;51.994;5.882;2023-04-03T13:02:22;5.20;;;1.30;;
68614;SDS011;55593;51.994;5.882;2023-04-03T13:04:53;3.67;;;1.52;;
68614;SDS011;55593;51.994;5.882;2023-04-03T13:07:26;3.47;;;1.38;;
68614;SDS011;55593;51.994;5.882;2023-04-03T13:09:59;5.47;;;2.70;;
68614;SDS011;55593;51.994;5.882;2023-04-03T13:12:31;5.03;;;1.50;;
68614;SDS011;55593;51.994;5.882;2023-04-03T13:15:11;4.45;;;1.70;;
68614;SDS011;55593;51.994;5.882;2023-04-03T13:17:42;6.90;;;1.30;;
68614;SDS011;55593;51.994;5.882;2023-04-03T13:20:15;6.20;;;1.50;;
68614;SDS011;55593;51.994;5.882;2023-04-03T13:22:49;4.35;;;1.40;;
68614;SDS011;55593;51.994;5.882;2023-04-03T13:25:25;4.38;;;1.50;;
68614;SDS011;55593;51.994;5.882;2023-04-03T13:27:57;7.20;;;1.50;;
68614;SDS011;55593;51.994;5.882;2023-04-03T13:30:30;3.35;;;1.83;;
68614;SDS011;55593;51.994;5.882;2023-04-03T13:33:03;5.05;;;1.40;;
68614;SDS011;55593;51.994;5.882;2023-04-03T13:35:35;5.40;;;1.70;;
68614;SDS011;55593;51.994;5.882;2023-04-03T13:38:19;6.78;;;2.00;;
68614;SDS011;55593;51.994;5.882;2023-04-03T13:40:51;4.78;;;1.80;;
68614;SDS011;55593;51.994;5.882;2023-04-03T13:43:23;5.28;;;1.38;;
68614;SDS011;55593;51.994;5.882;2023-04-03T13:45:59;4.47;;;1.60;;
68614;SDS011;55593;51.994;5.882;2023-04-03T13:48:35;6.88;;;1.60;;
68614;SDS011;55593;51.994;5.882;2023-04-03T13:51:13;6.10;;;1.50;;
68614;SDS011;55593;51.994;5.882;2023-04-03T13:53:47;5.43;;;1.63;;
68614;SDS011;55593;51.994;5.882;2023-04-03T13:56:19;5.78;;;1.70;;
68614;SDS011;55593;51.994;5.882;2023-04-03T13:58:53;4.57;;;1.80;;
68614;SDS011;55593;51.994;5.882;2023-04-03T14:01:42;6.43;;;1.60;;
68614;SDS011;55593;51.994;5.882;2023-04-03T14:04:15;4.65;;;1.67;;
68614;SDS011;55593;51.994;5.882;2023-04-03T14:06:47;3.08;;;1.50;;
68614;SDS011;55593;51.994;5.882;2023-04-03T14:09:17;4.25;;;1.77;;
68614;SDS011;55593;51.994;5.882;2023-04-03T14:11:47;4.10;;;1.60;;
68614;SDS011;55593;51.994;5.882;2023-04-03T14:14:19;3.97;;;1.35;;
68614;SDS011;55593;51.994;5.882;2023-04-03T14:17:09;6.35;;;2.85;;
68614;SDS011;55593;51.994;5.882;2023-04-03T14:19:42;6.90;;;1.67;;
68614;SDS011;55593;51.994;5.882;2023-04-03T14:22:14;3.95;;;1.65;;
68614;SDS011;55593;51.994;5.882;2023-04-03T14:24:44;6.40;;;1.60;;
68614;SDS011;55593;51.994;5.882;2023-04-03T14:27:16;5.00;;;1.83;;
68614;SDS011;55593;51.994;5.882;2023-04-03T14:29:47;5.38;;;1.67;;
68614;SDS011;55593;51.994;5.882;2023-04-03T14:32:20;4.55;;;1.80;;
68614;SDS011;55593;51.994;5.882;2023-04-03T14:34:50;3.85;;;1.65;;
68614;SDS011;55593;51.994;5.882;2023-04-03T14:37:21;3.70;;;1.83;;
68614;SDS011;55593;51.994;5.882;2023-04-03T14:39:52;6.30;;;2.45;;
68614;SDS011;55593;51.994;5.882;2023-04-03T14:42:23;3.88;;;1.55;;
68614;SDS011;55593;51.994;5.882;2023-04-03T14:44:53;5.03;;;2.35;;
68614;SDS011;55593;51.994;5.882;2023-04-03T14:47:25;5.60;;;1.95;;
68614;SDS011;55593;51.994;5.882;2023-04-03T14:49:56;8.32;;;2.08;;
68614;SDS011;55593;51.994;5.882;2023-04-03T14:52:26;6.53;;;2.03;;
68614;SDS011;55593;51.994;5.882;2023-04-03T14:54:58;6.78;;;2.03;;
68614;SDS011;55593;51.994;5.882;2023-04-03T14:57:28;5.15;;;2.10;;
68614;SDS011;55593;51.994;5.882;2023-04-03T14:59:58;7.97;;;1.80;;
68614;SDS011;55593;51.994;5.882;2023-04-03T15:02:32;5.95;;;1.67;;
68614;SDS011;55593;51.994;5.882;2023-04-03T15:05:03;3.72;;;1.80;;
68614;SDS011;55593;51.994;5.882;2023-04-03T15:07:34;5.10;;;1.50;;
68614;SDS011;55593;51.994;5.882;2023-04-03T15:10:13;4.90;;;2.25;;
68614;SDS011;55593;51.994;5.882;2023-04-03T15:12:44;7.78;;;2.47;;
68614;SDS011;55593;51.994;5.882;2023-04-03T15:15:14;5.05;;;1.92;;
68614;SDS011;55593;51.994;5.882;2023-04-03T15:17:50;5.60;;;2.00;;
68614;SDS011;55593;51.994;5.882;2023-04-03T15:20:22;7.73;;;2.27;;
68614;SDS011;55593;51.994;5.882;2023-04-03T15:22:52;4.53;;;1.95;;
68614;SDS011;55593;51.994;5.882;2023-04-03T15:25:21;6.63;;;1.92;;
68614;SDS011;55593;51.994;5.882;2023-04-03T15:27:51;6.00;;;1.92;;
68614;SDS011;55593;51.994;5.882;2023-04-03T15:30:21;5.30;;;2.10;;
68614;SDS011;55593;51.994;5.882;2023-04-03T15:32:53;3.58;;;1.80;;
68614;SDS011;55593;51.994;5.882;2023-04-03T15:35:22;5.65;;;1.60;;
68614;SDS011;55593;51.994;5.882;2023-04-03T15:37:52;6.93;;;2.10;;
68614;SDS011;55593;51.994;5.882;2023-04-03T15:40:21;8.43;;;1.98;;
68614;SDS011;55593;51.994;5.882;2023-04-03T15:42:50;5.00;;;1.63;;
68614;SDS011;55593;51.994;5.882;2023-04-03T15:45:19;6.28;;;1.88;;